Bloomingdale, Illinois
Current Conditions -  °F | °C
As of 3:52 AM on Thursday 29 Jan 2015 (Local Time) from KDPA Reporting Station
Few Clouds Few Clouds  
Wind Chill: 28°   Ceiling: Unl
Heat Index: 33°   Visibility: 10mi
Dew Point: 26°   Wind: 6mph
Humidity: 75%   Direction: 160°SSE
Pressure: 29.69"   Gusts: NA
Location:  41.95°N, 88.08°W
Report Text: KDPA 290952Z 16005KT 10SM FEW090 01/M03 A2969 RMK AO2 SLP062 T00061033
Loading
Personal Weather Stations






























Interactive Weather Map New forecast layout! Learn more

10-Day Weather Forecast

Advertisements
Track Severe Weather on mobile